sensor_id;sensor_type;location;lat;lon;timestamp;pressure;altitude;pressure_sealevel;temperature;humidity
59170;BME280;52474;52.236;5.114;2023-05-24T00:01:56;102532.34;;;7.13;100.00
59170;BME280;52474;52.236;5.114;2023-05-24T00:04:22;102512.94;;;6.95;100.00
59170;BME280;52474;52.236;5.114;2023-05-24T00:06:50;102534.53;;;7.03;100.00
59170;BME280;52474;52.236;5.114;2023-05-24T00:09:19;102509.00;;;6.85;100.00
59170;BME280;52474;52.236;5.114;2023-05-24T00:11:45;102521.09;;;6.89;100.00
59170;BME280;52474;52.236;5.114;2023-05-24T00:14:11;102520.44;;;6.84;100.00
59170;BME280;52474;52.236;5.114;2023-05-24T00:16:36;102529.59;;;6.75;100.00
59170;BME280;52474;52.236;5.114;2023-05-24T00:19:02;102531.47;;;6.72;100.00
59170;BME280;52474;52.236;5.114;2023-05-24T00:21:28;102526.63;;;6.62;100.00
59170;BME280;52474;52.236;5.114;2023-05-24T00:23:53;102525.63;;;6.65;100.00
59170;BME280;52474;52.236;5.114;2023-05-24T00:26:19;102532.78;;;6.61;100.00
59170;BME280;52474;52.236;5.114;2023-05-24T00:28:51;102534.63;;;6.59;100.00
59170;BME280;52474;52.236;5.114;2023-05-24T00:31:17;102531.09;;;6.60;100.00
59170;BME280;52474;52.236;5.114;2023-05-24T00:33:43;102536.41;;;6.59;100.00
59170;BME280;52474;52.236;5.114;2023-05-24T00:36:09;102535.50;;;6.60;100.00
59170;BME280;52474;52.236;5.114;2023-05-24T00:38:34;102515.84;;;6.47;100.00
59170;BME280;52474;52.236;5.114;2023-05-24T00:41:00;102539.22;;;6.54;100.00
59170;BME280;52474;52.236;5.114;2023-05-24T00:43:26;102507.25;;;6.43;100.00
59170;BME280;52474;52.236;5.114;2023-05-24T00:46:26;102524.38;;;6.53;100.00
59170;BME280;52474;52.236;5.114;2023-05-24T00:48:53;102516.78;;;6.45;100.00
59170;BME280;52474;52.236;5.114;2023-05-24T00:51:19;102517.16;;;6.36;100.00
59170;BME280;52474;52.236;5.114;2023-05-24T00:53:46;102520.78;;;6.34;100.00
59170;BME280;52474;52.236;5.114;2023-05-24T00:56:14;102517.44;;;6.30;100.00
59170;BME280;52474;52.236;5.114;2023-05-24T00:58:40;102481.28;;;6.13;100.00
59170;BME280;52474;52.236;5.114;2023-05-24T01:01:06;102516.34;;;6.34;100.00
59170;BME280;52474;52.236;5.114;2023-05-24T01:03:33;102524.25;;;6.34;100.00
59170;BME280;52474;52.236;5.114;2023-05-24T01:06:02;102517.34;;;6.32;100.00
59170;BME280;52474;52.236;5.114;2023-05-24T01:11:29;102505.44;;;6.23;100.00
59170;BME280;52474;52.236;5.114;2023-05-24T01:14:25;102490.69;;;6.19;100.00
59170;BME280;52474;52.236;5.114;2023-05-24T01:17:14;102500.75;;;6.30;100.00
59170;BME280;52474;52.236;5.114;2023-05-24T01:20:04;102515.19;;;6.41;100.00
59170;BME280;52474;52.236;5.114;2023-05-24T01:28:08;102518.25;;;6.53;100.00
59170;BME280;52474;52.236;5.114;2023-05-24T01:30:35;102522.66;;;6.52;100.00
59170;BME280;52474;52.236;5.114;2023-05-24T01:33:01;102515.19;;;6.41;100.00
59170;BME280;52474;52.236;5.114;2023-05-24T01:35:27;102522.53;;;6.55;100.00
59170;BME280;52474;52.236;5.114;2023-05-24T01:37:52;102533.28;;;6.49;100.00
59170;BME280;52474;52.236;5.114;2023-05-24T01:40:18;102502.50;;;6.31;100.00
59170;BME280;52474;52.236;5.114;2023-05-24T01:48:13;102523.28;;;6.37;100.00
59170;BME280;52474;52.236;5.114;2023-05-24T01:50:58;102517.28;;;6.33;100.00
59170;BME280;52474;52.236;5.114;2023-05-24T01:53:29;102517.34;;;6.32;100.00
59170;BME280;52474;52.236;5.114;2023-05-24T01:55:58;102500.84;;;6.28;100.00
59170;BME280;52474;52.236;5.114;2023-05-24T01:58:26;102501.69;;;6.29;100.00
59170;BME280;52474;52.236;5.114;2023-05-24T02:00:54;102504.31;;;6.29;100.00
59170;BME280;52474;52.236;5.114;2023-05-24T02:03:20;102493.66;;;6.32;100.00
59170;BME280;52474;52.236;5.114;2023-05-24T02:05:46;102501.69;;;6.29;100.00
59170;BME280;52474;52.236;5.114;2023-05-24T02:08:12;102509.44;;;6.32;100.00
59170;BME280;52474;52.236;5.114;2023-05-24T02:10:41;102500.22;;;6.21;100.00
59170;BME280;52474;52.236;5.114;2023-05-24T02:13:07;102467.56;;;6.05;100.00
59170;BME280;52474;52.236;5.114;2023-05-24T02:15:33;102494.16;;;6.19;100.00
59170;BME280;52474;52.236;5.114;2023-05-24T02:18:03;102486.41;;;6.16;100.00
59170;BME280;52474;52.236;5.114;2023-05-24T02:20:32;102492.59;;;6.15;100.00
59170;BME280;52474;52.236;5.114;2023-05-24T02:23:02;102492.88;;;6.08;100.00
59170;BME280;52474;52.236;5.114;2023-05-24T02:25:29;102441.66;;;5.72;100.00
59170;BME280;52474;52.236;5.114;2023-05-24T02:27:57;102501.56;;;6.10;100.00
59170;BME280;52474;52.236;5.114;2023-05-24T02:30:23;102500.00;;;6.06;100.00
59170;BME280;52474;52.236;5.114;2023-05-24T02:32:48;102500.34;;;5.96;100.00
59170;BME280;52474;52.236;5.114;2023-05-24T02:35:14;102507.25;;;5.99;100.00
59170;BME280;52474;52.236;5.114;2023-05-24T02:37:40;102501.88;;;6.02;100.00
59170;BME280;52474;52.236;5.114;2023-05-24T02:40:06;102492.78;;;6.11;100.00
59170;BME280;52474;52.236;5.114;2023-05-24T02:42:32;102492.66;;;6.14;100.00
59170;BME280;52474;52.236;5.114;2023-05-24T02:44:58;102503.97;;;6.16;100.00
59170;BME280;52474;52.236;5.114;2023-05-24T02:47:24;102510.44;;;6.07;100.00
59170;BME280;52474;52.236;5.114;2023-05-24T02:49:52;102483.13;;;5.88;100.00
59170;BME280;52474;52.236;5.114;2023-05-24T02:52:18;102500.69;;;5.87;100.00
59170;BME280;52474;52.236;5.114;2023-05-24T02:54:48;102508.81;;;5.81;100.00
59170;BME280;52474;52.236;5.114;2023-05-24T02:57:16;102504.44;;;5.80;100.00
59170;BME280;52474;52.236;5.114;2023-05-24T02:59:43;102508.75;;;5.82;100.00
59170;BME280;52474;52.236;5.114;2023-05-24T03:02:10;102495.84;;;5.76;100.00
59170;BME280;52474;52.236;5.114;2023-05-24T03:04:38;102488.84;;;5.75;100.00
59170;BME280;52474;52.236;5.114;2023-05-24T03:07:07;102478.47;;;5.72;100.00
59170;BME280;52474;52.236;5.114;2023-05-24T03:09:32;102510.09;;;5.93;100.00
59170;BME280;52474;52.236;5.114;2023-05-24T03:11:58;102508.38;;;5.92;100.00
59170;BME280;52474;52.236;5.114;2023-05-24T03:14:24;102514.97;;;5.80;100.00
59170;BME280;52474;52.236;5.114;2023-05-24T03:16:50;102503.72;;;5.76;100.00
59170;BME280;52474;52.236;5.114;2023-05-24T03:19:16;102502.94;;;5.74;100.00
59170;BME280;52474;52.236;5.114;2023-05-24T03:21:43;102504.03;;;5.69;100.00
59170;BME280;52474;52.236;5.114;2023-05-24T03:24:08;102502.13;;;5.72;100.00
59170;BME280;52474;52.236;5.114;2023-05-24T03:26:35;102493.72;;;5.86;100.00
59170;BME280;52474;52.236;5.114;2023-05-24T03:29:00;102504.44;;;5.80;100.00
59170;BME280;52474;52.236;5.114;2023-05-24T03:31:33;102507.81;;;5.62;100.00
59170;BME280;52474;52.236;5.114;2023-05-24T03:33:59;102515.69;;;5.62;100.00
59170;BME280;52474;52.236;5.114;2023-05-24T03:36:26;102506.75;;;5.66;100.00
59170;BME280;52474;52.236;5.114;2023-05-24T03:38:53;102483.56;;;5.53;100.00
59170;BME280;52474;52.236;5.114;2023-05-24T03:41:20;102451.13;;;5.31;100.00
59170;BME280;52474;52.236;5.114;2023-05-24T03:43:45;102500.81;;;5.60;100.00
59170;BME280;52474;52.236;5.114;2023-05-24T03:46:15;102502.41;;;5.65;100.00
59170;BME280;52474;52.236;5.114;2023-05-24T03:48:41;102478.44;;;5.50;100.00
59170;BME280;52474;52.236;5.114;2023-05-24T03:51:06;102478.22;;;5.56;100.00
59170;BME280;52474;52.236;5.114;2023-05-24T03:53:33;102501.28;;;5.72;100.00
59170;BME280;52474;52.236;5.114;2023-05-24T03:55:59;102495.25;;;5.68;100.00
59170;BME280;52474;52.236;5.114;2023-05-24T03:58:25;102497.78;;;5.71;100.00
59170;BME280;52474;52.236;5.114;2023-05-24T04:00:51;102492.59;;;5.70;100.00
59170;BME280;52474;52.236;5.114;2023-05-24T04:03:17;102488.97;;;5.72;100.00
59170;BME280;52474;52.236;5.114;2023-05-24T04:05:45;102499.50;;;5.72;100.00
59170;BME280;52474;52.236;5.114;2023-05-24T04:08:10;102496.88;;;5.72;100.00
59170;BME280;52474;52.236;5.114;2023-05-24T04:10:37;102496.53;;;5.81;100.00
59170;BME280;52474;52.236;5.114;2023-05-24T04:13:03;102503.25;;;5.89;100.00
59170;BME280;52474;52.236;5.114;2023-05-24T04:15:29;102496.06;;;5.94;100.00
59170;BME280;52474;52.236;5.114;2023-05-24T04:17:55;102486.28;;;5.97;100.00
59170;BME280;52474;52.236;5.114;2023-05-24T04:20:21;102488.00;;;5.98;100.00
59170;BME280;52474;52.236;5.114;2023-05-24T04:22:52;102472.28;;;5.97;100.00
59170;BME280;52474;52.236;5.114;2023-05-24T04:25:18;102487.69;;;6.06;100.00
59170;BME280;52474;52.236;5.114;2023-05-24T04:27:44;102475.81;;;6.18;100.00
59170;BME280;52474;52.236;5.114;2023-05-24T04:30:13;102494.88;;;6.45;100.00
59170;BME280;52474;52.236;5.114;2023-05-24T04:32:41;102498.91;;;6.54;100.00
59170;BME280;52474;52.236;5.114;2023-05-24T04:35:10;102503.69;;;6.64;100.00
59170;BME280;52474;52.236;5.114;2023-05-24T04:37:36;102476.53;;;6.64;100.00
59170;BME280;52474;52.236;5.114;2023-05-24T04:40:02;102476.97;;;6.74;100.00
59170;BME280;52474;52.236;5.114;2023-05-24T04:42:29;102495.94;;;7.02;100.00
59170;BME280;52474;52.236;5.114;2023-05-24T04:44:56;102509.53;;;7.32;100.00
59170;BME280;52474;52.236;5.114;2023-05-24T04:47:23;102483.47;;;7.26;100.00
59170;BME280;52474;52.236;5.114;2023-05-24T04:49:49;102501.34;;;7.39;100.00
59170;BME280;52474;52.236;5.114;2023-05-24T04:52:16;102478.94;;;7.28;100.00
59170;BME280;52474;52.236;5.114;2023-05-24T04:54:41;102492.16;;;7.47;100.00
59170;BME280;52474;52.236;5.114;2023-05-24T04:57:07;102497.06;;;7.55;100.00
59170;BME280;52474;52.236;5.114;2023-05-24T04:59:33;102479.81;;;7.48;100.00
59170;BME280;52474;52.236;5.114;2023-05-24T05:01:58;102508.47;;;7.74;100.00
59170;BME280;52474;52.236;5.114;2023-05-24T05:04:24;102496.91;;;7.96;100.00
59170;BME280;52474;52.236;5.114;2023-05-24T05:06:50;102484.66;;;7.95;100.00
59170;BME280;52474;52.236;5.114;2023-05-24T05:09:17;102480.88;;;8.01;100.00
59170;BME280;52474;52.236;5.114;2023-05-24T05:11:45;102495.09;;;8.15;100.00
59170;BME280;52474;52.236;5.114;2023-05-24T05:14:11;102473.28;;;8.12;100.00
59170;BME280;52474;52.236;5.114;2023-05-24T05:16:37;102507.31;;;8.35;100.00
59170;BME280;52474;52.236;5.114;2023-05-24T05:19:03;102491.63;;;8.32;100.00
59170;BME280;52474;52.236;5.114;2023-05-24T05:21:30;102514.44;;;8.52;100.00
59170;BME280;52474;52.236;5.114;2023-05-24T05:23:59;102507.81;;;8.61;100.00
59170;BME280;52474;52.236;5.114;2023-05-24T05:26:26;102492.91;;;8.60;100.00
59170;BME280;52474;52.236;5.114;2023-05-24T05:28:52;102523.38;;;8.85;100.00
59170;BME280;52474;52.236;5.114;2023-05-24T05:31:19;102513.09;;;9.13;100.00
59170;BME280;52474;52.236;5.114;2023-05-24T05:33:45;102524.41;;;9.49;100.00
59170;BME280;52474;52.236;5.114;2023-05-24T05:36:11;102520.94;;;9.64;100.00
59170;BME280;52474;52.236;5.114;2023-05-24T05:38:37;102522.38;;;10.01;100.00
59170;BME280;52474;52.236;5.114;2023-05-24T05:41:02;102515.41;;;10.32;100.00
59170;BME280;52474;52.236;5.114;2023-05-24T05:43:32;102499.38;;;10.49;100.00
59170;BME280;52474;52.236;5.114;2023-05-24T05:45:58;102518.16;;;10.75;100.00
59170;BME280;52474;52.236;5.114;2023-05-24T05:48:25;102489.16;;;10.58;100.00
59170;BME280;52474;52.236;5.114;2023-05-24T05:50:51;102512.22;;;10.71;100.00
59170;BME280;52474;52.236;5.114;2023-05-24T05:53:17;102524.47;;;10.88;100.00
59170;BME280;52474;52.236;5.114;2023-05-24T05:55:45;102501.94;;;11.10;100.00
59170;BME280;52474;52.236;5.114;2023-05-24T05:58:11;102514.44;;;11.51;100.00
59170;BME280;52474;52.236;5.114;2023-05-24T06:00:38;102516.25;;;11.50;100.00
59170;BME280;52474;52.236;5.114;2023-05-24T06:03:04;102498.56;;;11.78;100.00
59170;BME280;52474;52.236;5.114;2023-05-24T06:05:30;102515.16;;;11.96;100.00
59170;BME280;52474;52.236;5.114;2023-05-24T06:07:56;102509.41;;;12.16;100.00
59170;BME280;52474;52.236;5.114;2023-05-24T06:10:21;102513.66;;;11.77;100.00
59170;BME280;52474;52.236;5.114;2023-05-24T06:12:47;102515.69;;;11.45;100.00
59170;BME280;52474;52.236;5.114;2023-05-24T06:15:13;102513.94;;;12.41;100.00
59170;BME280;52474;52.236;5.114;2023-05-24T06:17:38;102512.03;;;15.25;100.00
59170;BME280;52474;52.236;5.114;2023-05-24T06:20:06;102515.25;;;14.49;100.00
59170;BME280;52474;52.236;5.114;2023-05-24T06:22:40;102517.50;;;15.80;100.00
59170;BME280;52474;52.236;5.114;2023-05-24T06:25:07;102505.97;;;14.54;100.00
59170;BME280;52474;52.236;5.114;2023-05-24T06:27:36;102522.19;;;13.79;100.00
59170;BME280;52474;52.236;5.114;2023-05-24T06:30:02;102526.19;;;13.09;100.00
59170;BME280;52474;52.236;5.114;2023-05-24T06:32:28;102510.03;;;12.60;100.00
59170;BME280;52474;52.236;5.114;2023-05-24T06:34:54;102527.75;;;14.72;100.00
59170;BME280;52474;52.236;5.114;2023-05-24T06:37:20;102530.94;;;13.68;100.00
59170;BME280;52474;52.236;5.114;2023-05-24T06:39:50;102528.72;;;17.44;100.00
59170;BME280;52474;52.236;5.114;2023-05-24T06:42:16;102521.84;;;21.41;100.00
59170;BME280;52474;52.236;5.114;2023-05-24T06:44:44;102522.72;;;21.15;100.00
59170;BME280;52474;52.236;5.114;2023-05-24T06:47:10;102521.81;;;21.67;100.00
59170;BME280;52474;52.236;5.114;2023-05-24T06:49:36;102523.94;;;24.14;100.00
59170;BME280;52474;52.236;5.114;2023-05-24T06:52:02;102531.75;;;23.86;100.00
59170;BME280;52474;52.236;5.114;2023-05-24T06:54:28;102529.50;;;21.19;100.00
59170;BME280;52474;52.236;5.114;2023-05-24T06:56:54;102519.03;;;23.55;100.00
59170;BME280;52474;52.236;5.114;2023-05-24T06:59:20;102530.22;;;22.31;100.00
59170;BME280;52474;52.236;5.114;2023-05-24T07:01:45;102531.63;;;20.10;100.00
59170;BME280;52474;52.236;5.114;2023-05-24T07:04:12;102532.00;;;18.75;100.00
59170;BME280;52474;52.236;5.114;2023-05-24T07:06:38;102536.28;;;17.08;100.00
59170;BME280;52474;52.236;5.114;2023-05-24T07:09:04;102536.72;;;19.58;100.00
59170;BME280;52474;52.236;5.114;2023-05-24T07:11:30;102517.91;;;18.93;100.00
59170;BME280;52474;52.236;5.114;2023-05-24T07:13:56;102535.22;;;17.20;100.00
59170;BME280;52474;52.236;5.114;2023-05-24T07:16:23;102539.09;;;18.18;100.00
59170;BME280;52474;52.236;5.114;2023-05-24T07:18:49;102537.66;;;22.29;100.00
59170;BME280;52474;52.236;5.114;2023-05-24T07:21:14;102530.69;;;22.84;100.00
59170;BME280;52474;52.236;5.114;2023-05-24T07:23:40;102536.56;;;21.47;100.00
59170;BME280;52474;52.236;5.114;2023-05-24T07:26:06;102534.38;;;25.01;100.00
59170;BME280;52474;52.236;5.114;2023-05-24T07:28:33;102533.00;;;24.30;100.00
59170;BME280;52474;52.236;5.114;2023-05-24T07:31:02;102533.31;;;20.65;100.00
59170;BME280;52474;52.236;5.114;2023-05-24T07:33:28;102519.84;;;23.64;100.00
59170;BME280;52474;52.236;5.114;2023-05-24T07:35:54;102523.72;;;23.62;100.00
59170;BME280;52474;52.236;5.114;2023-05-24T07:38:20;102542.00;;;20.76;100.00
59170;BME280;52474;52.236;5.114;2023-05-24T07:40:45;102527.91;;;19.75;100.00
59170;BME280;52474;52.236;5.114;2023-05-24T07:43:11;102529.34;;;18.85;100.00
59170;BME280;52474;52.236;5.114;2023-05-24T07:45:37;102528.91;;;21.76;100.00
59170;BME280;52474;52.236;5.114;2023-05-24T07:48:02;102539.78;;;20.36;100.00
59170;BME280;52474;52.236;5.114;2023-05-24T07:50:28;102522.19;;;26.08;100.00
59170;BME280;52474;52.236;5.114;2023-05-24T07:52:57;102522.84;;;28.39;98.21
59170;BME280;52474;52.236;5.114;2023-05-24T07:55:23;102535.78;;;27.90;90.30
59170;BME280;52474;52.236;5.114;2023-05-24T07:57:49;102540.91;;;28.46;86.80
59170;BME280;52474;52.236;5.114;2023-05-24T08:00:15;102531.06;;;27.64;87.44
59170;BME280;52474;52.236;5.114;2023-05-24T08:02:42;102532.25;;;29.03;84.00
59170;BME280;52474;52.236;5.114;2023-05-24T08:05:11;102516.25;;;29.26;76.25
59170;BME280;52474;52.236;5.114;2023-05-24T08:07:41;102531.53;;;30.49;75.29
59170;BME280;52474;52.236;5.114;2023-05-24T08:10:11;102538.06;;;29.40;75.48
59170;BME280;52474;52.236;5.114;2023-05-24T08:12:38;102530.28;;;27.77;78.11
59170;BME280;52474;52.236;5.114;2023-05-24T08:15:05;102521.28;;;26.44;88.82
59170;BME280;52474;52.236;5.114;2023-05-24T08:17:31;102519.50;;;28.37;78.48
59170;BME280;52474;52.236;5.114;2023-05-24T08:19:57;102530.75;;;25.39;89.06
59170;BME280;52474;52.236;5.114;2023-05-24T08:22:23;102524.84;;;22.56;100.00
59170;BME280;52474;52.236;5.114;2023-05-24T08:24:49;102533.34;;;20.29;100.00
59170;BME280;52474;52.236;5.114;2023-05-24T08:27:15;102528.06;;;19.64;100.00
59170;BME280;52474;52.236;5.114;2023-05-24T08:29:40;102511.13;;;23.06;100.00
59170;BME280;52474;52.236;5.114;2023-05-24T08:32:06;102521.81;;;28.13;89.46
59170;BME280;52474;52.236;5.114;2023-05-24T08:34:36;102520.88;;;29.78;80.18
59170;BME280;52474;52.236;5.114;2023-05-24T08:37:03;102522.72;;;30.72;70.33
59170;BME280;52474;52.236;5.114;2023-05-24T08:39:29;102521.84;;;30.53;70.13
59170;BME280;52474;52.236;5.114;2023-05-24T08:41:56;102529.97;;;29.00;72.15
59170;BME280;52474;52.236;5.114;2023-05-24T08:44:24;102524.19;;;26.64;87.74
59170;BME280;52474;52.236;5.114;2023-05-24T08:46:54;102528.69;;;29.16;74.66
59170;BME280;52474;52.236;5.114;2023-05-24T08:49:20;102529.16;;;28.79;68.45
59170;BME280;52474;52.236;5.114;2023-05-24T08:51:47;102523.75;;;30.21;64.95
59170;BME280;52474;52.236;5.114;2023-05-24T08:54:13;102526.28;;;31.53;62.16
59170;BME280;52474;52.236;5.114;2023-05-24T08:56:39;102515.19;;;32.20;59.25
59170;BME280;52474;52.236;5.114;2023-05-24T08:59:10;102510.91;;;32.24;57.41
59170;BME280;52474;52.236;5.114;2023-05-24T09:01:39;102522.28;;;31.98;57.20
59170;BME280;52474;52.236;5.114;2023-05-24T09:04:06;102521.84;;;31.52;54.34
59170;BME280;52474;52.236;5.114;2023-05-24T09:06:35;102506.94;;;28.36;63.11
59170;BME280;52474;52.236;5.114;2023-05-24T09:09:02;102526.06;;;27.68;72.02
59170;BME280;52474;52.236;5.114;2023-05-24T09:11:30;102518.78;;;24.28;94.05
59170;BME280;52474;52.236;5.114;2023-05-24T09:13:57;102523.38;;;26.63;92.15
59170;BME280;52474;52.236;5.114;2023-05-24T09:16:25;102513.41;;;26.27;82.09
59170;BME280;52474;52.236;5.114;2023-05-24T09:18:52;102532.53;;;23.16;100.00
59170;BME280;52474;52.236;5.114;2023-05-24T09:21:18;102528.44;;;21.81;100.00
59170;BME280;52474;52.236;5.114;2023-05-24T09:23:48;102522.84;;;26.31;94.93
59170;BME280;52474;52.236;5.114;2023-05-24T09:26:14;102513.63;;;28.86;73.74
59170;BME280;52474;52.236;5.114;2023-05-24T09:28:40;102514.25;;;27.47;80.90
59170;BME280;52474;52.236;5.114;2023-05-24T09:31:06;102515.59;;;26.88;79.71
59170;BME280;52474;52.236;5.114;2023-05-24T09:33:33;102526.56;;;23.76;100.00
59170;BME280;52474;52.236;5.114;2023-05-24T09:36:02;102514.34;;;22.20;100.00
59170;BME280;52474;52.236;5.114;2023-05-24T09:38:28;102523.41;;;24.42;100.00
59170;BME280;52474;52.236;5.114;2023-05-24T09:40:59;102515.38;;;26.90;87.72
59170;BME280;52474;52.236;5.114;2023-05-24T09:43:26;102509.34;;;27.29;78.13
59170;BME280;52474;52.236;5.114;2023-05-24T09:45:54;102510.22;;;27.30;92.51
59170;BME280;52474;52.236;5.114;2023-05-24T09:48:27;102516.56;;;28.12;73.80
59170;BME280;52474;52.236;5.114;2023-05-24T09:51:04;102507.28;;;25.46;88.75
59170;BME280;52474;52.236;5.114;2023-05-24T09:53:32;102494.53;;;28.20;80.66
59170;BME280;52474;52.236;5.114;2023-05-24T09:56:05;102496.22;;;29.46;70.13
59170;BME280;52474;52.236;5.114;2023-05-24T09:58:33;102506.75;;;29.87;66.34
59170;BME280;52474;52.236;5.114;2023-05-24T10:01:08;102517.13;;;29.20;65.28
59170;BME280;52474;52.236;5.114;2023-05-24T10:03:35;102507.22;;;29.32;65.27
59170;BME280;52474;52.236;5.114;2023-05-24T10:06:05;102511.50;;;25.04;85.47
59170;BME280;52474;52.236;5.114;2023-05-24T10:08:35;102509.22;;;28.39;78.07
59170;BME280;52474;52.236;5.114;2023-05-24T10:11:02;102501.28;;;29.49;69.18
59170;BME280;52474;52.236;5.114;2023-05-24T10:13:32;102514.72;;;28.59;68.69
59170;BME280;52474;52.236;5.114;2023-05-24T10:16:04;102516.97;;;29.67;71.36
59170;BME280;52474;52.236;5.114;2023-05-24T10:18:33;102501.81;;;29.71;67.81
59170;BME280;52474;52.236;5.114;2023-05-24T10:21:01;102493.84;;;29.63;66.81
59170;BME280;52474;52.236;5.114;2023-05-24T10:23:33;102515.91;;;28.23;67.07
59170;BME280;52474;52.236;5.114;2023-05-24T10:26:08;102504.44;;;28.61;68.16
59170;BME280;52474;52.236;5.114;2023-05-24T10:28:39;102495.97;;;29.02;66.44
59170;BME280;52474;52.236;5.114;2023-05-24T10:31:14;102512.59;;;29.52;63.44
59170;BME280;52474;52.236;5.114;2023-05-24T10:33:42;102492.16;;;30.00;67.26
59170;BME280;52474;52.236;5.114;2023-05-24T10:36:11;102490.69;;;31.16;62.73
59170;BME280;52474;52.236;5.114;2023-05-24T10:38:39;102485.06;;;30.93;58.82
59170;BME280;52474;52.236;5.114;2023-05-24T10:41:06;102514.44;;;26.26;76.39
59170;BME280;52474;52.236;5.114;2023-05-24T10:43:35;102513.31;;;23.03;100.00
59170;BME280;52474;52.236;5.114;2023-05-24T10:46:02;102508.22;;;26.11;86.47
59170;BME280;52474;52.236;5.114;2023-05-24T10:48:32;102504.56;;;28.99;73.92
59170;BME280;52474;52.236;5.114;2023-05-24T10:51:00;102501.88;;;27.38;76.94
59170;BME280;52474;52.236;5.114;2023-05-24T10:53:26;102503.53;;;28.94;69.65
59170;BME280;52474;52.236;5.114;2023-05-24T10:56:02;102506.22;;;29.65;63.87
59170;BME280;52474;52.236;5.114;2023-05-24T11:01:00;102502.31;;;30.50;64.79
59170;BME280;52474;52.236;5.114;2023-05-24T11:03:33;102495.50;;;26.89;74.36
59170;BME280;52474;52.236;5.114;2023-05-24T11:05:59;102490.47;;;24.91;87.70
59170;BME280;52474;52.236;5.114;2023-05-24T11:08:31;102488.53;;;25.66;88.73
59170;BME280;52474;52.236;5.114;2023-05-24T11:11:11;102473.47;;;26.49;81.01
59170;BME280;52474;52.236;5.114;2023-05-24T11:13:40;102482.66;;;24.35;94.32
59170;BME280;52474;52.236;5.114;2023-05-24T11:16:06;102506.88;;;23.12;100.00
59170;BME280;52474;52.236;5.114;2023-05-24T11:18:32;102503.59;;;26.05;88.87
59170;BME280;52474;52.236;5.114;2023-05-24T11:21:05;102490.59;;;26.71;79.45
59170;BME280;52474;52.236;5.114;2023-05-24T11:23:32;102493.34;;;27.61;76.62
59170;BME280;52474;52.236;5.114;2023-05-24T11:26:05;102495.38;;;26.69;84.66
59170;BME280;52474;52.236;5.114;2023-05-24T11:28:31;102489.91;;;24.81;94.53
59170;BME280;52474;52.236;5.114;2023-05-24T11:31:07;102493.50;;;26.70;85.18
59170;BME280;52474;52.236;5.114;2023-05-24T11:33:34;102491.75;;;25.40;83.89
59170;BME280;52474;52.236;5.114;2023-05-24T11:35:59;102495.22;;;23.51;98.38
59170;BME280;52474;52.236;5.114;2023-05-24T11:38:27;102498.97;;;22.04;100.00
59170;BME280;52474;52.236;5.114;2023-05-24T11:40:53;102485.28;;;26.13;96.72
59170;BME280;52474;52.236;5.114;2023-05-24T11:43:19;102493.50;;;25.62;89.68
59170;BME280;52474;52.236;5.114;2023-05-24T11:45:50;102500.28;;;23.54;100.00
59170;BME280;52474;52.236;5.114;2023-05-24T11:48:17;102498.84;;;23.74;100.00
59170;BME280;52474;52.236;5.114;2023-05-24T11:50:45;102484.78;;;24.48;100.00
59170;BME280;52474;52.236;5.114;2023-05-24T11:53:16;102492.06;;;23.39;100.00
59170;BME280;52474;52.236;5.114;2023-05-24T11:55:43;102500.53;;;23.36;100.00
59170;BME280;52474;52.236;5.114;2023-05-24T12:00:46;102500.13;;;23.08;100.00
59170;BME280;52474;52.236;5.114;2023-05-24T12:03:12;102496.75;;;23.06;100.00
59170;BME280;52474;52.236;5.114;2023-05-24T12:05:39;102492.59;;;23.34;100.00
59170;BME280;52474;52.236;5.114;2023-05-24T12:08:07;102494.81;;;23.23;100.00
59170;BME280;52474;52.236;5.114;2023-05-24T12:10:35;102499.31;;;22.17;100.00
59170;BME280;52474;52.236;5.114;2023-05-24T12:13:20;102501.06;;;20.99;100.00
59170;BME280;52474;52.236;5.114;2023-05-24T12:15:49;102481.56;;;20.97;100.00
59170;BME280;52474;52.236;5.114;2023-05-24T12:18:19;102478.06;;;20.78;100.00
59170;BME280;52474;52.236;5.114;2023-05-24T12:20:47;102493.84;;;20.73;100.00
59170;BME280;52474;52.236;5.114;2023-05-24T12:23:14;102495.63;;;21.17;100.00
59170;BME280;52474;52.236;5.114;2023-05-24T12:25:40;102475.53;;;21.11;100.00
59170;BME280;52474;52.236;5.114;2023-05-24T12:28:09;102494.88;;;21.07;100.00
59170;BME280;52474;52.236;5.114;2023-05-24T12:30:36;102484.81;;;21.43;100.00
59170;BME280;52474;52.236;5.114;2023-05-24T12:33:02;102479.50;;;21.68;100.00
59170;BME280;52474;52.236;5.114;2023-05-24T12:35:28;102475.13;;;20.90;100.00
59170;BME280;52474;52.236;5.114;2023-05-24T12:37:58;102484.91;;;20.99;100.00
59170;BME280;52474;52.236;5.114;2023-05-24T12:40:31;102492.84;;;21.35;100.00
59170;BME280;52474;52.236;5.114;2023-05-24T12:43:01;102483.13;;;22.01;100.00
59170;BME280;52474;52.236;5.114;2023-05-24T12:45:38;102477.56;;;23.32;100.00
59170;BME280;52474;52.236;5.114;2023-05-24T12:48:04;102489.59;;;22.33;100.00
59170;BME280;52474;52.236;5.114;2023-05-24T12:50:30;102492.00;;;21.85;100.00
59170;BME280;52474;52.236;5.114;2023-05-24T12:52:56;102488.88;;;22.39;100.00
59170;BME280;52474;52.236;5.114;2023-05-24T12:55:24;102503.28;;;21.72;100.00
59170;BME280;52474;52.236;5.114;2023-05-24T12:57:54;102486.94;;;21.74;100.00
59170;BME280;52474;52.236;5.114;2023-05-24T13:00:22;102499.34;;;20.90;100.00
59170;BME280;52474;52.236;5.114;2023-05-24T13:02:49;102490.44;;;20.09;100.00
59170;BME280;52474;52.236;5.114;2023-05-24T13:05:17;102500.50;;;19.89;100.00
59170;BME280;52474;52.236;5.114;2023-05-24T13:07:43;102508.03;;;20.04;100.00
59170;BME280;52474;52.236;5.114;2023-05-24T13:10:10;102507.59;;;20.08;100.00